Time;durP1;ratioP1;P1;durP2;ratioP2;P2;SDS_P1;SDS_P2;PMS_P1;PMS_P2;Temp;Humidity;BMP_temperature;BMP_pressure;BME280_temperature;BME280_humidity;BME280_pressure;Samples;Min_cycle;Max_cycle;Signal;HPM_P1;HPM_P2
2020/12/01 00:02:09;;;;;;;15.28;10.10;;;;;;;-1.40;75.89;96998.66;1744206;82;21213;-88
2020/12/01 00:04:35;;;;;;;18.12;10.88;;;;;;;-1.39;76.13;97000.28;1719960;82;21094;-87
2020/12/01 00:07:01;;;;;;;15.60;9.65;;;;;;;-1.40;75.64;97003.75;1729497;80;21098;-87
2020/12/01 00:09:28;;;;;;;16.30;10.40;;;;;;;-1.41;75.96;97000.84;1721843;82;21075;-87
2020/12/01 00:11:54;;;;;;;17.73;11.05;;;;;;;-1.42;75.60;97005.58;1735493;81;21094;-86
2020/12/01 00:14:20;;;;;;;17.05;10.28;;;;;;;-1.42;75.23;97000.02;1746451;80;21091;-87
2020/12/01 00:16:46;;;;;;;15.93;9.58;;;;;;;-1.39;75.45;97006.66;1732525;82;21254;-86
2020/12/01 00:19:13;;;;;;;18.55;12.03;;;;;;;-1.39;75.48;97005.39;1730350;80;21189;-86
2020/12/01 00:21:39;;;;;;;13.40;7.33;;;;;;;-1.39;75.27;97009.20;1755814;82;21086;-86
2020/12/01 00:24:05;;;;;;;14.25;9.60;;;;;;;-1.38;75.08;97005.75;1734586;80;21106;-87
2020/12/01 00:26:31;;;;;;;15.28;9.83;;;;;;;-1.40;75.30;97002.48;1734280;82;21306;-87
2020/12/01 00:28:57;;;;;;;10.48;7.78;;;;;;;-1.42;75.31;97000.02;1737719;80;21102;-87
2020/12/01 00:31:23;;;;;;;13.40;8.43;;;;;;;-1.44;75.07;97001.84;1752648;82;21349;-86
2020/12/01 00:33:49;;;;;;;15.60;10.08;;;;;;;-1.42;74.90;96994.11;1755473;80;21338;-87
2020/12/01 00:36:15;;;;;;;13.48;9.33;;;;;;;-1.40;74.83;97004.56;1750952;81;21106;-86
2020/12/01 00:38:42;;;;;;;12.60;9.45;;;;;;;-1.41;75.07;96999.11;1739366;80;21071;-87
2020/12/01 00:41:08;;;;;;;13.32;9.55;;;;;;;-1.44;75.01;96999.30;1734428;80;21098;-86
2020/12/01 00:43:34;;;;;;;11.28;7.62;;;;;;;-1.41;74.61;96998.29;1744809;82;21277;-87
2020/12/01 00:46:00;;;;;;;13.10;9.60;;;;;;;-1.40;74.46;96991.83;1711543;82;21094;-87
2020/12/01 00:48:26;;;;;;;13.40;8.33;;;;;;;-1.37;74.43;96986.53;1735918;80;21197;-87
2020/12/01 00:50:52;;;;;;;15.10;9.78;;;;;;;-1.38;74.61;96995.55;1738474;81;21100;-87
2020/12/01 00:53:18;;;;;;;13.60;8.95;;;;;;;-1.40;74.83;96990.55;1730841;80;21081;-86
2020/12/01 00:55:45;;;;;;;11.12;7.78;;;;;;;-1.41;74.72;96989.37;1741077;80;21216;-87
2020/12/01 00:58:11;;;;;;;13.38;9.23;;;;;;;-1.40;74.69;96991.83;1728155;80;21082;-87
2020/12/01 01:00:37;;;;;;;14.35;8.93;;;;;;;-1.42;74.59;96982.64;1729945;80;21270;-87
2020/12/01 01:03:03;;;;;;;12.47;9.13;;;;;;;-1.44;74.89;96979.37;1739374;80;21237;-87
2020/12/01 01:05:29;;;;;;;12.68;9.03;;;;;;;-1.49;74.88;96983.45;1750158;82;21106;-86
2020/12/01 01:07:55;;;;;;;9.93;7.03;;;;;;;-1.52;74.52;96976.80;1736986;82;21055;-87
2020/12/01 01:10:28;;;;;;;13.03;8.85;;;;;;;-1.52;74.21;96978.08;1706049;80;21294;-87
2020/12/01 01:12:54;;;;;;;15.90;9.70;;;;;;;-1.51;74.86;96968.70;1733760;80;21082;-86
2020/12/01 01:15:23;;;;;;;12.07;8.20;;;;;;;-1.55;74.74;96965.53;1754960;81;21118;-87
2020/12/01 01:17:49;;;;;;;12.03;9.10;;;;;;;-1.54;74.17;96965.89;1750957;80;21114;-86
2020/12/01 01:20:15;;;;;;;12.43;9.05;;;;;;;-1.51;74.27;96960.60;1725896;82;21216;-87
2020/12/01 01:22:41;;;;;;;13.22;8.68;;;;;;;-1.49;74.23;96959.23;1746734;80;21114;-87
2020/12/01 01:25:08;;;;;;;13.58;9.10;;;;;;;-1.52;74.22;96958.15;1725856;80;21122;-87
2020/12/01 01:27:35;;;;;;;12.23;9.38;;;;;;;-1.55;74.38;96951.52;1758478;80;21075;-87
2020/12/01 01:30:01;;;;;;;12.63;9.58;;;;;;;-1.56;74.10;96952.88;1725909;80;21106;-86
2020/12/01 01:32:27;;;;;;;12.35;8.90;;;;;;;-1.53;74.24;96946.32;1743414;82;21086;-88
2020/12/01 01:34:52;;;;;;;11.63;9.00;;;;;;;-1.51;74.14;96949.59;1717342;82;21242;-87
2020/12/01 01:37:21;;;;;;;13.80;9.80;;;;;;;-1.50;73.83;96942.30;1743408;80;21221;-86
2020/12/01 01:39:47;;;;;;;13.50;9.88;;;;;;;-1.48;73.82;96940.48;1729046;80;21106;-87
2020/12/01 01:42:14;;;;;;;13.40;9.53;;;;;;;-1.45;73.84;96936.48;1745193;80;21983;-87
2020/12/01 01:44:40;;;;;;;13.35;9.33;;;;;;;-1.45;73.69;96943.32;1734686;80;21121;-87
2020/12/01 01:47:25;;;;;;;13.60;9.98;;;;;;;-1.44;73.41;96943.22;1732737;80;21118;-87
2020/12/01 01:50:01;;;;;;;14.65;9.50;;;;;;;-1.43;73.67;96942.77;1733535;82;21097;-89
2020/12/01 01:52:33;;;;;;;13.85;9.50;;;;;;;-1.44;73.27;96931.75;1737149;80;21252;-90
2020/12/01 01:55:12;;;;;;;13.72;10.72;;;;;;;-1.46;73.46;96937.41;1733086;81;21103;-88
2020/12/01 01:57:38;;;;;;;9.95;8.15;;;;;;;-1.46;73.55;96934.86;1745511;80;21301;-89
2020/12/01 02:00:12;;;;;;;14.85;10.23;;;;;;;-1.48;73.28;96925.19;1733408;81;21306;-86
2020/12/01 02:02:36;;;;;;;9.15;7.40;;;;;;;-1.49;73.37;96929.11;1738806;82;21628;-86
2020/12/01 02:05:02;;;;;;;12.20;8.83;;;;;;;-1.51;72.89;96931.30;1741745;80;21051;-87
2020/12/01 02:07:30;;;;;;;12.55;8.98;;;;;;;-1.55;73.31;96928.58;1744356;81;21102;-87
2020/12/01 02:09:56;;;;;;;11.70;8.65;;;;;;;-1.58;73.36;96926.22;1718775;80;21306;-87
2020/12/01 02:12:22;;;;;;;13.83;10.15;;;;;;;-1.60;73.22;96928.05;1668423;82;21097;-87
2020/12/01 02:14:58;;;;;;;8.23;6.58;;;;;;;-1.61;73.15;96926.88;1737410;80;21345;-87
2020/12/01 02:17:28;;;;;;;12.28;8.58;;;;;;;-1.62;72.81;96927.78;1739217;80;21308;-87
2020/12/01 02:20:00;;;;;;;12.85;8.65;;;;;;;-1.65;73.22;96931.31;1732589;80;21101;-86
2020/12/01 02:22:26;;;;;;;11.57;8.43;;;;;;;-1.67;73.12;96922.95;1732608;80;21098;-87
2020/12/01 02:24:53;;;;;;;12.63;8.48;;;;;;;-1.68;73.45;96925.59;1739616;80;21155;-87
2020/12/01 02:27:21;;;;;;;9.58;7.78;;;;;;;-1.72;72.93;96929.24;1742875;80;21106;-87
2020/12/01 02:29:49;;;;;;;11.48;8.48;;;;;;;-1.73;73.14;96919.97;1736526;82;21285;-86
2020/12/01 02:32:15;;;;;;;11.18;8.20;;;;;;;-1.76;73.23;96924.80;1737365;82;21114;-87
2020/12/01 02:34:45;;;;;;;9.08;6.87;;;;;;;-1.78;73.23;96924.07;1711148;80;21317;-87
2020/12/01 02:37:15;;;;;;;6.70;5.17;;;;;;;-1.82;73.16;96920.87;1741883;80;21089;-87
2020/12/01 02:39:42;;;;;;;10.93;7.55;;;;;;;-1.82;72.92;96920.87;1729524;82;21126;-87
2020/12/01 02:42:12;;;;;;;8.35;6.37;;;;;;;-1.81;72.95;96908.48;1741023;80;21102;-87
2020/12/01 02:44:38;;;;;;;10.28;6.60;;;;;;;-1.83;73.17;96909.50;1745677;82;21122;-87
2020/12/01 02:47:05;;;;;;;11.90;8.00;;;;;;;-1.84;72.61;96917.59;1738169;80;21098;-88
2020/12/01 02:49:33;;;;;;;10.10;6.22;;;;;;;-1.83;72.75;96919.23;1737182;82;21114;-88
2020/12/01 02:51:59;;;;;;;9.28;6.58;;;;;;;-1.83;72.51;96909.50;1737118;80;21114;-88
2020/12/01 02:54:25;;;;;;;12.03;7.58;;;;;;;-1.82;72.65;96909.41;1741844;80;21344;-89
2020/12/01 02:56:51;;;;;;;7.95;5.83;;;;;;;-1.84;72.62;96908.69;1735021;81;21122;-88
2020/12/01 02:59:17;;;;;;;9.58;6.72;;;;;;;-1.85;72.30;96918.51;1730089;82;21225;-87
2020/12/01 03:01:44;;;;;;;10.05;7.08;;;;;;;-1.83;72.34;96911.59;1736802;82;21114;-88
2020/12/01 03:04:10;;;;;;;8.55;6.12;;;;;;;-1.84;72.50;96907.41;1734841;80;21204;-87
2020/12/01 03:06:36;;;;;;;8.83;6.20;;;;;;;-1.86;72.20;96909.69;1707700;82;21059;-87
2020/12/01 03:09:05;;;;;;;9.13;6.70;;;;;;;-1.88;71.78;96904.69;1731647;80;21093;-88
2020/12/01 03:11:32;;;;;;;9.45;7.08;;;;;;;-1.88;72.33;96902.14;1739573;82;21085;-88
2020/12/01 03:13:58;;;;;;;6.80;6.05;;;;;;;-1.85;72.25;96901.95;1740520;80;21261;-87
2020/12/01 03:16:27;;;;;;;9.48;6.58;;;;;;;-1.86;72.17;96894.41;1727590;80;21090;-87
2020/12/01 03:18:53;;;;;;;8.50;6.28;;;;;;;-1.86;71.92;96889.31;1738845;80;21260;-87
2020/12/01 03:21:20;;;;;;;9.40;6.97;;;;;;;-1.85;72.18;96890.95;1743154;80;21324;-87
2020/12/01 03:23:46;;;;;;;9.15;6.40;;;;;;;-1.85;72.01;96890.48;1728567;80;21594;-88
2020/12/01 03:26:15;;;;;;;6.67;4.90;;;;;;;-1.86;71.66;96888.04;1744951;82;21094;-87
2020/12/01 03:28:46;;;;;;;9.33;6.55;;;;;;;-1.86;71.66;96884.22;1737706;82;21105;-87
2020/12/01 03:31:13;;;;;;;9.80;6.37;;;;;;;-1.88;71.92;96894.50;1734052;80;21106;-87
2020/12/01 03:33:39;;;;;;;8.70;6.03;;;;;;;-1.87;71.91;96893.59;1738757;80;21174;-87
2020/12/01 03:36:06;;;;;;;5.53;4.40;;;;;;;-1.87;71.51;96895.32;1737598;80;21427;-87
2020/12/01 03:38:32;;;;;;;8.20;5.40;;;;;;;-1.86;71.11;96895.22;1736716;82;21067;-87
2020/12/01 03:40:58;;;;;;;7.70;5.65;;;;;;;-1.88;71.49;96898.78;1730976;80;21110;-88
2020/12/01 03:43:24;;;;;;;7.80;6.45;;;;;;;-1.87;70.75;96883.86;1743365;80;21122;-87
2020/12/01 03:45:51;;;;;;;7.80;6.00;;;;;;;-1.86;71.20;96896.95;1732077;82;21071;-88
2020/12/01 03:48:17;;;;;;;7.78;6.85;;;;;;;-1.88;71.48;96892.41;1742810;82;21103;-87
2020/12/01 03:50:43;;;;;;;6.53;5.47;;;;;;;-1.90;71.44;96893.78;1730235;82;21473;-87
2020/12/01 03:53:09;;;;;;;8.68;6.30;;;;;;;-1.92;71.06;96891.78;1740348;82;21244;-88
2020/12/01 03:55:35;;;;;;;8.03;5.75;;;;;;;-1.93;71.12;96899.06;1727782;82;21138;-87
2020/12/01 03:58:01;;;;;;;8.10;5.72;;;;;;;-1.95;71.16;96889.88;1721697;81;21314;-87
2020/12/01 04:00:28;;;;;;;6.05;5.35;;;;;;;-1.96;71.41;96893.31;1714723;82;21139;-87
2020/12/01 04:02:54;;;;;;;8.10;6.30;;;;;;;-1.96;70.98;96873.76;1731669;82;21090;-87
2020/12/01 04:05:22;;;;;;;8.83;5.30;;;;;;;-1.97;71.74;96884.04;1689560;83;21108;-87
2020/12/01 04:07:51;;;;;;;10.23;6.67;;;;;;;-1.98;71.19;96883.22;1685340;84;21337;-87
2020/12/01 04:10:17;;;;;;;7.47;5.40;;;;;;;-1.99;71.03;96880.31;1657659;84;21134;-88
2020/12/01 04:12:43;;;;;;;7.83;6.08;;;;;;;-1.99;70.90;96875.22;1675656;83;21118;-87
2020/12/01 04:15:09;;;;;;;10.45;6.78;;;;;;;-1.98;71.35;96876.85;1679856;83;21147;-87
2020/12/01 04:17:35;;;;;;;5.22;4.72;;;;;;;-1.99;71.15;96873.95;1691510;83;21130;-88
2020/12/01 04:20:03;;;;;;;7.78;5.42;;;;;;;-2.00;70.90;96875.31;1675721;84;21091;-88
2020/12/01 04:22:29;;;;;;;8.38;7.08;;;;;;;-2.02;70.98;96872.05;1682382;84;21107;-87
2020/12/01 04:24:55;;;;;;;7.67;5.25;;;;;;;-2.02;70.87;96861.41;1679720;84;21318;-87
2020/12/01 04:27:21;;;;;;;7.15;5.50;;;;;;;-2.00;70.83;96868.95;1680516;84;21155;-87
2020/12/01 04:29:47;;;;;;;8.10;5.78;;;;;;;-1.99;70.88;96859.13;1684861;83;21130;-87
2020/12/01 04:32:14;;;;;;;8.45;6.95;;;;;;;-2.04;70.68;96851.77;1676453;83;21294;-87
2020/12/01 04:34:40;;;;;;;8.00;6.08;;;;;;;-2.05;71.42;96850.59;1677333;84;21126;-87
2020/12/01 04:37:06;;;;;;;8.05;5.62;;;;;;;-2.04;71.17;96850.95;1672987;83;21114;-87
2020/12/01 04:39:32;;;;;;;7.45;6.67;;;;;;;-2.04;71.16;96849.22;1695437;83;21236;-87
2020/12/01 04:41:59;;;;;;;9.05;6.60;;;;;;;-2.01;70.99;96841.85;1685896;83;21393;-87
2020/12/01 04:44:38;;;;;;;5.72;5.12;;;;;;;-2.00;70.86;96843.03;1689391;83;21244;-88
2020/12/01 04:47:12;;;;;;;8.78;6.37;;;;;;;-1.99;70.62;96847.20;1674952;84;21260;-87
2020/12/01 04:49:41;;;;;;;6.62;4.50;;;;;;;-1.99;70.92;96841.30;1675096;83;21138;-87
2020/12/01 04:52:37;;;;;;;7.58;5.58;;;;;;;-2.00;70.46;96847.30;1697764;84;21102;-87
2020/12/01 04:55:59;;;;;;;8.28;5.75;;;;;;;-2.02;70.33;96841.03;1651143;83;21142;-88
2020/12/01 04:59:03;;;;;;;9.88;7.05;;;;;;;-2.00;70.66;96846.03;1693918;83;21135;-87
2020/12/01 05:02:12;;;;;;;8.50;6.20;;;;;;;-2.01;70.36;96837.58;1665607;84;21106;-88
2020/12/01 05:05:09;;;;;;;8.33;6.72;;;;;;;-2.01;70.92;96845.67;1701701;81;21521;-87
2020/12/01 05:08:17;;;;;;;6.65;4.60;;;;;;;-2.03;71.16;96843.67;1726977;81;21063;-87
2020/12/01 05:10:42;;;;;;;6.85;5.10;;;;;;;-2.06;70.68;96843.41;1720326;81;21110;-87
2020/12/01 05:13:26;;;;;;;8.70;6.20;;;;;;;-2.08;70.57;96836.33;1711388;81;21083;-87
2020/12/01 05:16:15;;;;;;;6.58;4.70;;;;;;;-2.07;70.37;96831.59;1731271;81;21110;-87
2020/12/01 05:18:41;;;;;;;6.40;5.75;;;;;;;-2.02;70.10;96832.12;1719639;82;21106;-87
2020/12/01 05:21:07;;;;;;;9.93;6.78;;;;;;;-2.01;70.54;96831.66;1724670;81;21221;-87
2020/12/01 05:23:41;;;;;;;9.15;6.80;;;;;;;-2.05;70.47;96823.40;1690171;82;21116;-88
2020/12/01 05:26:10;;;;;;;7.92;5.70;;;;;;;-2.05;70.70;96825.95;1710501;81;21126;-87
2020/12/01 05:28:50;;;;;;;8.88;5.62;;;;;;;-2.05;70.74;96827.22;1728333;82;21313;-87
2020/12/01 05:31:20;;;;;;;7.45;5.15;;;;;;;-2.05;69.68;96827.22;1733782;81;21104;-88
2020/12/01 05:33:46;;;;;;;8.83;6.22;;;;;;;-2.00;70.45;96825.20;1740638;81;21759;-88
2020/12/01 05:36:35;;;;;;;7.08;5.45;;;;;;;-1.99;70.89;96826.02;1718192;82;21144;-87
2020/12/01 05:39:17;;;;;;;8.53;7.05;;;;;;;-2.00;70.60;96820.56;1719997;81;21329;-88
2020/12/01 05:41:45;;;;;;;7.20;6.12;;;;;;;-2.02;70.30;96819.39;1738596;81;21220;-88
2020/12/01 05:44:26;;;;;;;7.92;5.90;;;;;;;-1.99;70.54;96819.66;1730703;82;21111;-88
2020/12/01 05:47:10;;;;;;;9.98;7.12;;;;;;;-2.00;70.66;96821.38;1700053;82;21110;-87
2020/12/01 05:49:52;;;;;;;9.38;6.28;;;;;;;-1.98;70.56;96821.28;1721991;82;21145;-87
2020/12/01 05:52:28;;;;;;;6.28;5.05;;;;;;;-1.96;70.48;96815.64;1721812;82;21233;-87
2020/12/01 05:55:23;;;;;;;9.75;6.80;;;;;;;-2.00;70.75;96821.38;1740694;81;21342;-88
2020/12/01 05:58:12;;;;;;;8.43;5.80;;;;;;;-2.04;71.05;96822.94;1721614;82;21322;-88
2020/12/01 06:00:41;;;;;;;8.50;5.85;;;;;;;-2.10;70.60;96821.59;1716157;81;21095;-87
2020/12/01 06:03:36;;;;;;;10.48;7.78;;;;;;;-2.10;70.89;96815.23;1717808;81;21084;-88
2020/12/01 06:06:02;;;;;;;8.80;6.58;;;;;;;-2.11;70.91;96822.52;1707421;82;21075;-88
2020/12/01 06:08:52;;;;;;;11.25;7.72;;;;;;;-2.10;71.06;96829.23;1658666;82;21126;-88
2020/12/01 06:11:37;;;;;;;11.18;6.58;;;;;;;-2.08;70.92;96818.95;1738195;81;21717;-88
2020/12/01 06:14:17;;;;;;;8.78;5.55;;;;;;;-2.06;70.89;96821.77;1732705;82;21265;-88
2020/12/01 06:16:52;;;;;;;10.75;6.80;;;;;;;-2.05;70.43;96815.77;1716116;81;21078;-87
2020/12/01 06:19:31;;;;;;;11.40;7.58;;;;;;;-2.01;70.68;96819.75;1696091;81;21094;-89
2020/12/01 06:22:16;;;;;;;10.00;6.92;;;;;;;-2.02;70.98;96819.84;1722126;81;21075;-88
2020/12/01 06:25:00;;;;;;;6.97;5.33;;;;;;;-2.04;70.55;96822.48;1739154;82;21228;-89
2020/12/01 06:28:09;;;;;;;10.63;7.35;;;;;;;-2.03;70.24;96821.58;1725823;82;21272;-90
2020/12/01 06:31:09;;;;;;;10.20;6.70;;;;;;;-2.01;70.15;96822.30;1740493;82;21086;-88
2020/12/01 06:33:58;;;;;;;8.30;6.28;;;;;;;-1.99;70.53;96820.92;1711457;81;21067;-89
2020/12/01 06:36:58;;;;;;;9.73;7.72;;;;;;;-1.99;70.21;96824.75;1736356;81;21445;-89
2020/12/01 06:39:54;;;;;;;7.35;5.30;;;;;;;-1.96;70.06;96823.28;1712298;81;21229;-88
2020/12/01 06:42:35;;;;;;;7.83;4.65;;;;;;;-1.94;70.08;96818.94;1690941;82;21079;-88
2020/12/01 06:45:07;;;;;;;8.15;6.47;;;;;;;-1.98;70.21;96813.64;1720122;81;21221;-89
2020/12/01 06:47:34;;;;;;;6.87;5.00;;;;;;;-2.02;70.64;96816.84;1720146;82;21314;-88
2020/12/01 06:50:04;;;;;;;7.60;6.33;;;;;;;-2.02;70.21;96816.84;1715331;81;21346;-89
2020/12/01 06:52:30;;;;;;;9.13;6.85;;;;;;;-2.01;70.25;96813.38;1725854;81;21099;-89
2020/12/01 06:54:57;;;;;;;11.22;6.92;;;;;;;-1.99;70.62;96809.47;1719177;81;21603;-89
2020/12/01 06:57:34;;;;;;;10.72;6.65;;;;;;;-2.00;70.59;96812.92;1745876;80;21118;-89
2020/12/01 07:00:00;;;;;;;10.90;7.53;;;;;;;-1.98;70.07;96811.09;1678918;84;21244;-88
2020/12/01 07:02:36;;;;;;;8.23;6.37;;;;;;;-1.96;70.24;96815.64;1734564;80;21232;-88
2020/12/01 07:05:12;;;;;;;7.40;5.60;;;;;;;-1.92;69.95;96797.55;1745969;80;21105;-87
2020/12/01 07:07:44;;;;;;;9.30;6.35;;;;;;;-1.88;69.96;96798.17;1734371;80;21102;-87
2020/12/01 07:10:21;;;;;;;11.83;7.75;;;;;;;-1.89;69.67;96798.63;1723648;82;21227;-86
2020/12/01 07:12:53;;;;;;;8.33;6.67;;;;;;;-1.84;69.60;96802.97;1696592;84;21109;-89
2020/12/01 07:15:31;;;;;;;9.45;7.00;;;;;;;-1.75;69.78;96804.60;1743925;80;21106;-88
2020/12/01 07:18:11;;;;;;;10.13;7.30;;;;;;;-1.73;70.32;96798.49;1731283;80;21078;-88
2020/12/01 07:21:07;;;;;;;6.58;5.50;;;;;;;-1.71;70.09;96807.31;1735521;80;21277;-89
2020/12/01 07:23:41;;;;;;;8.83;6.58;;;;;;;-1.74;69.44;96811.33;1705973;82;21309;-89
2020/12/01 07:26:48;;;;;;;8.35;6.65;;;;;;;-1.72;69.68;96812.86;1731560;82;21219;-89
2020/12/01 08:15:24;;;;;;;10.43;7.70;;;;;;;-1.29;68.45;96816.53;1789120;78;22917;-84
2020/12/01 08:17:56;;;;;;;8.58;6.92;;;;;;;-1.32;68.34;96821.80;1780630;80;21060;-84
2020/12/01 08:23:11;;;;;;;10.03;6.85;;;;;;;-1.27;68.39;96817.25;1831801;76;22710;-83
2020/12/01 08:25:42;;;;;;;10.63;8.15;;;;;;;-1.30;68.05;96818.27;1852080;77;21117;-84
2020/12/01 08:28:25;;;;;;;9.38;6.17;;;;;;;-1.28;68.63;96831.73;1844791;77;21081;-84
2020/12/01 08:31:09;;;;;;;7.85;6.20;;;;;;;-1.25;68.58;96826.89;1841090;77;21082;-84
2020/12/01 08:34:01;;;;;;;9.98;7.25;;;;;;;-1.27;68.49;96829.55;1859581;77;21081;-84
2020/12/01 08:37:07;;;;;;;10.58;8.10;;;;;;;-1.26;68.92;96832.91;1849836;77;21098;-85
2020/12/01 08:40:08;;;;;;;6.65;4.58;;;;;;;-1.24;68.57;96826.79;1839295;77;21078;-85
2020/12/01 08:43:17;;;;;;;7.95;5.30;;;;;;;-1.20;67.71;96823.58;1829512;77;21324;-85
2020/12/01 08:45:52;;;;;;;7.05;5.42;;;;;;;-1.16;68.13;96829.30;1843508;77;21227;-85
2020/12/01 08:48:27;;;;;;;10.55;7.10;;;;;;;-1.16;67.93;96833.94;1860799;77;21070;-84
2020/12/01 08:51:03;;;;;;;10.32;6.87;;;;;;;-1.16;68.81;96828.83;1696321;82;21137;-86
2020/12/01 08:54:05;;;;;;;6.62;5.45;;;;;;;-1.10;68.82;96827.19;1812151;79;23030;-83
2020/12/01 08:57:12;;;;;;;7.97;5.80;;;;;;;-1.11;68.13;96836.21;1797197;78;21091;-84
2020/12/01 09:00:13;;;;;;;9.63;6.70;;;;;;;-1.06;67.58;96834.17;1800340;78;21081;-84
2020/12/01 09:02:51;;;;;;;8.73;6.50;;;;;;;-0.96;68.17;96832.67;1775262;78;21244;-85
2020/12/01 09:05:32;;;;;;;8.05;5.42;;;;;;;-0.87;66.91;96838.44;1801966;78;21113;-84
2020/12/01 09:17:07;;;;;;;7.53;6.00;;;;;;;-0.59;66.25;96829.79;1756556;81;21377;-84
2020/12/01 09:22:38;;;;;;;9.90;6.67;;;;;;;-0.41;64.65;96834.12;1753310;81;21106;-85
2020/12/01 09:25:11;;;;;;;8.65;7.05;;;;;;;-0.32;65.50;96836.88;1744900;81;21083;-84
2020/12/01 09:27:39;;;;;;;;;;;;;;;-0.29;65.60;96842.23;1763349;81;21327;-85
2020/12/01 09:30:06;;;;;;;9.75;7.03;;;;;;;-0.26;65.40;96839.47;1747132;81;20133;-85
2020/12/01 09:32:37;;;;;;;12.30;8.68;;;;;;;-0.24;65.07;96838.91;1715916;81;21457;-84
2020/12/01 09:35:03;;;;;;;9.80;7.08;;;;;;;-0.21;65.91;96842.98;1762526;81;21254;-85
2020/12/01 09:37:29;;;;;;;9.18;6.35;;;;;;;-0.18;65.67;96840.22;1734562;81;21106;-85
2020/12/01 09:42:35;;;;;;;10.80;7.62;;;;;;;-0.06;65.45;96835.56;1804468;79;23117;-84
2020/12/01 09:47:39;;;;;;;11.10;8.23;;;;;;;-0.01;66.03;96833.49;1782499;78;21244;-86
2020/12/01 09:50:15;;;;;;;8.28;5.05;;;;;;;0.03;65.78;96827.73;1775349;80;21470;-85
2020/12/01 10:36:21;;;;;;;14.10;8.90;;;;;;;0.65;64.37;96799.47;1760033;79;22824;-85
2020/12/01 10:38:48;;;;;;;16.20;10.25;;;;;;;0.62;63.91;96799.69;1737977;80;21122;-85
2020/12/01 10:41:15;;;;;;;14.70;8.93;;;;;;;0.64;64.76;96796.56;1736697;82;21110;-88
2020/12/01 10:43:42;;;;;;;12.30;8.55;;;;;;;0.67;63.63;96792.53;1717403;82;21121;-88
2020/12/01 10:46:11;;;;;;;14.07;9.78;;;;;;;0.69;63.77;96799.63;1734896;80;21232;-87
2020/12/01 10:48:38;;;;;;;14.50;9.15;;;;;;;0.73;64.39;96798.00;1743865;82;21236;-88
2020/12/01 10:51:06;;;;;;;12.25;8.43;;;;;;;0.78;63.73;96795.92;1752577;82;21297;-87
2020/12/01 10:53:38;;;;;;;12.43;8.68;;;;;;;0.80;64.20;96794.53;1736356;80;21138;-88
2020/12/01 10:56:17;;;;;;;12.58;8.15;;;;;;;0.84;63.94;96797.23;1726186;80;21131;-87
2020/12/01 10:58:40;;;;;;;13.32;9.15;;;;;;;0.89;63.53;96796.43;1746182;80;21119;-87
2020/12/01 11:01:07;;;;;;;14.60;8.53;;;;;;;0.94;63.62;96802.48;1735241;80;21145;-88
2020/12/01 11:03:36;;;;;;;13.60;9.05;;;;;;;0.98;63.91;96802.63;1737998;80;21241;-86
2020/12/01 11:06:11;;;;;;;12.20;8.65;;;;;;;0.99;63.85;96801.70;1706602;80;21220;-87
2020/12/01 11:08:37;;;;;;;13.62;9.13;;;;;;;1.04;64.78;96810.66;1735131;82;21264;-87
2020/12/01 11:11:05;;;;;;;11.78;8.10;;;;;;;1.05;63.25;96804.62;1733420;81;21251;-86
2020/12/01 11:13:32;;;;;;;12.53;8.83;;;;;;;1.11;63.58;96807.99;1724481;80;21153;-86
2020/12/01 11:16:01;;;;;;;13.83;8.98;;;;;;;1.14;64.46;96808.26;1749906;80;21130;-86
2020/12/01 11:18:28;;;;;;;13.20;9.40;;;;;;;1.18;64.39;96809.66;1739363;82;21964;-86
2020/12/01 11:20:55;;;;;;;8.80;6.47;;;;;;;1.20;64.09;96808.61;1733678;82;21134;-86
2020/12/01 11:23:21;;;;;;;11.48;7.83;;;;;;;1.23;63.46;96807.56;1733496;80;21121;-86
2020/12/01 11:25:47;;;;;;;11.93;8.98;;;;;;;1.20;63.19;96811.63;1739716;82;21244;-86
2020/12/01 11:28:14;;;;;;;12.73;9.60;;;;;;;1.18;63.08;96813.50;1753361;82;21154;-86
2020/12/01 11:30:40;;;;;;;13.70;8.85;;;;;;;1.15;63.83;96806.86;1734914;80;21249;-85
2020/12/01 11:33:06;;;;;;;15.95;10.38;;;;;;;1.19;63.80;96804.88;1732127;80;21115;-86
2020/12/01 11:35:33;;;;;;;15.53;10.18;;;;;;;1.18;64.22;96800.23;1710422;82;21421;-86
2020/12/01 11:37:59;;;;;;;15.15;10.32;;;;;;;1.25;64.57;96798.48;1739899;82;21138;-85
2020/12/01 11:40:25;;;;;;;15.00;9.15;;;;;;;1.30;63.89;96793.39;1748515;81;21106;-85
2020/12/01 11:42:52;;;;;;;12.73;8.30;;;;;;;1.34;63.79;96792.23;1748913;81;21099;-85
2020/12/01 11:45:19;;;;;;;11.50;8.15;;;;;;;1.40;63.37;96797.34;1741885;80;21225;-85
2020/12/01 11:47:45;;;;;;;14.03;9.25;;;;;;;1.41;63.05;96792.57;1727446;81;21466;-86
2020/12/01 11:50:12;;;;;;;9.65;6.58;;;;;;;1.45;64.79;96795.25;1735638;81;21083;-87
2020/12/01 11:52:38;;;;;;;14.43;10.20;;;;;;;1.45;63.56;96790.13;1735754;81;21225;-86
2020/12/01 11:55:05;;;;;;;13.38;8.83;;;;;;;1.46;63.92;96791.75;1734903;82;21110;-86
2020/12/01 11:57:31;;;;;;;13.20;8.38;;;;;;;1.46;64.23;96784.07;1736164;81;21133;-89
2020/12/01 12:00:00;;;;;;;13.32;9.55;;;;;;;1.47;62.96;96784.45;1744816;80;21528;-90
2020/12/01 12:02:26;;;;;;;12.70;8.20;;;;;;;1.48;63.67;96784.80;1714991;82;21123;-92
2020/12/01 12:04:53;;;;;;;16.02;9.90;;;;;;;1.53;63.56;96782.70;1702797;82;21257;-91
2020/12/01 12:07:20;;;;;;;13.62;9.70;;;;;;;1.55;64.10;96784.67;1735096;81;21111;-91
2020/12/01 12:09:46;;;;;;;16.12;10.03;;;;;;;1.60;63.83;96780.47;1725983;81;21620;-92
2020/12/01 12:12:13;;;;;;;13.60;10.15;;;;;;;1.61;63.88;96784.20;1725388;82;21249;-92
2020/12/01 12:14:39;;;;;;;15.95;10.80;;;;;;;1.62;64.11;96788.38;1730345;81;21179;-91
2020/12/01 12:17:05;;;;;;;14.87;9.68;;;;;;;1.63;63.92;96775.14;1718866;81;21134;-91
2020/12/01 12:19:31;;;;;;;14.65;10.25;;;;;;;1.63;63.58;96772.11;1741356;81;21105;-91
2020/12/01 12:21:58;;;;;;;13.58;9.78;;;;;;;1.60;63.45;96771.04;1727618;81;21153;-91
2020/12/01 12:24:24;;;;;;;16.27;10.75;;;;;;;1.58;63.55;96768.25;1727004;81;21118;-90
2020/12/01 12:26:50;;;;;;;15.03;10.60;;;;;;;1.56;64.32;96778.61;1691223;82;21095;-92
2020/12/01 12:29:16;;;;;;;14.53;10.68;;;;;;;1.53;63.79;96771.17;1692583;82;21106;-91
2020/12/01 12:31:42;;;;;;;14.13;9.55;;;;;;;1.52;64.06;96777.69;1749180;81;21103;-92
2020/12/01 12:34:08;;;;;;;14.65;9.98;;;;;;;1.54;64.10;96777.92;1729454;81;21348;-92
2020/12/01 12:36:35;;;;;;;13.08;9.78;;;;;;;1.54;63.70;96774.08;1752346;81;21102;-91
2020/12/01 12:39:01;;;;;;;16.02;10.50;;;;;;;1.52;64.12;96775.13;1753363;80;21110;-91
2020/12/01 12:41:27;;;;;;;13.62;9.68;;;;;;;1.52;64.62;96773.38;1737739;80;21110;-92
2020/12/01 12:43:53;;;;;;;15.83;10.50;;;;;;;1.55;64.86;96779.55;1749822;82;21130;-92
2020/12/01 12:46:19;;;;;;;13.65;10.00;;;;;;;1.54;64.79;96776.64;1732148;80;21232;-91
2020/12/01 12:48:45;;;;;;;14.65;9.70;;;;;;;1.52;65.48;96781.06;1726941;82;21234;-89
2020/12/01 12:51:11;;;;;;;16.93;10.35;;;;;;;1.49;64.63;96781.30;1726739;80;21256;-88
2020/12/01 12:53:38;;;;;;;15.60;10.10;;;;;;;1.45;64.04;96780.70;1740775;80;21126;-88
2020/12/01 12:56:04;;;;;;;15.95;11.22;;;;;;;1.43;64.02;96775.34;1739622;80;21126;-90
2020/12/01 12:58:31;;;;;;;14.70;9.53;;;;;;;1.43;64.44;96777.91;1733620;80;21090;-88
2020/12/01 13:00:57;;;;;;;14.65;10.35;;;;;;;1.38;64.61;96780.00;1745537;80;21241;-90
2020/12/01 13:03:23;;;;;;;15.10;9.40;;;;;;;1.32;64.97;96780.01;1742409;80;21082;-89
2020/12/01 13:05:50;;;;;;;14.98;9.85;;;;;;;1.35;64.67;96786.17;1752146;80;21441;-88
2020/12/01 13:08:16;;;;;;;14.73;10.03;;;;;;;1.36;64.74;96783.15;1750619;80;21114;-88
2020/12/01 13:10:42;;;;;;;16.02;10.60;;;;;;;1.39;64.90;96783.73;1759196;80;21248;-87
2020/12/01 13:13:08;;;;;;;13.70;9.70;;;;;;;1.42;65.19;96781.40;1711522;82;21109;-87
2020/12/01 13:15:34;;;;;;;14.43;10.30;;;;;;;1.42;64.93;96780.94;1725299;80;21268;-88
2020/12/01 13:18:01;;;;;;;14.38;10.98;;;;;;;1.44;64.83;96789.78;1747184;80;21113;-88
2020/12/01 13:20:29;;;;;;;16.35;10.58;;;;;;;1.44;65.01;96793.62;1741314;82;21289;-88
2020/12/01 13:22:55;;;;;;;14.60;9.93;;;;;;;1.45;64.88;96791.41;1749901;82;21106;-88
2020/12/01 13:25:21;;;;;;;13.38;9.65;;;;;;;1.39;65.14;96793.16;1734214;80;21236;-88
2020/12/01 13:27:48;;;;;;;17.35;11.00;;;;;;;1.33;65.62;96793.63;1725895;82;21102;-87
2020/12/01 13:30:15;;;;;;;14.30;10.08;;;;;;;1.31;65.37;96799.33;1709118;82;21070;-88
2020/12/01 13:32:41;;;;;;;14.83;10.03;;;;;;;1.26;65.80;96802.20;1737717;80;21125;-88
2020/12/01 13:35:10;;;;;;;15.35;10.03;;;;;;;1.24;66.18;96802.80;1746537;80;21373;-88
2020/12/01 13:37:36;;;;;;;13.65;9.05;;;;;;;1.19;66.45;96805.70;1742236;82;21102;-88
2020/12/01 13:40:05;;;;;;;13.28;9.28;;;;;;;1.15;66.41;96807.33;1731981;80;21517;-88